createdAt,value
2022-10-24T00:02:29.336Z,104.72
2022-10-24T00:07:25.580Z,103.45
2022-10-24T00:17:23.047Z,105.70
2022-10-24T00:22:19.285Z,106.85
2022-10-24T00:27:15.693Z,108.88
2022-10-24T00:32:11.903Z,109.88
2022-10-24T00:37:08.137Z,111.18
2022-10-24T00:42:04.433Z,108.78
2022-10-24T00:47:00.613Z,111.75
2022-10-24T00:52:00.680Z,111.15
2022-10-24T00:56:59.948Z,112.90
2022-10-24T01:01:56.562Z,109.32
2022-10-24T01:06:55.535Z,112.82
2022-10-24T01:11:51.715Z,114.32
2022-10-24T01:16:50.448Z,109.65
2022-10-24T01:21:53.091Z,110.70
2022-10-24T01:26:56.967Z,109.38
2022-10-24T01:31:55.603Z,108.78
2022-10-24T01:36:57.723Z,111.05
2022-10-24T01:41:55.609Z,110.43
2022-10-24T01:46:55.979Z,108.90
2022-10-24T01:51:54.275Z,108.93
2022-10-24T01:56:51.152Z,107.57
2022-10-24T02:01:47.773Z,108.15
2022-10-24T02:06:45.783Z,109.13
2022-10-24T02:11:42.479Z,107.85
2022-10-24T02:16:38.822Z,111.18
2022-10-24T02:21:43.325Z,108.80
2022-10-24T02:26:46.207Z,112.93
2022-10-24T02:31:44.403Z,112.30
2022-10-24T02:36:41.193Z,107.97
2022-10-24T02:41:39.093Z,106.03
2022-10-24T02:46:35.437Z,107.88
2022-10-24T02:51:36.871Z,109.53
2022-10-24T02:56:33.525Z,106.47
2022-10-24T03:01:29.786Z,109.38
2022-10-24T03:06:26.031Z,113.78
2022-10-24T03:11:22.758Z,112.55
2022-10-24T03:16:18.970Z,110.05
2022-10-24T03:21:15.230Z,108.22
2022-10-24T03:26:11.752Z,110.93
2022-10-24T03:31:08.174Z,108.72
2022-10-24T03:36:05.407Z,112.05
2022-10-24T03:41:01.643Z,113.95
2022-10-24T03:45:57.934Z,112.00
2022-10-24T03:50:54.180Z,114.40
2022-10-24T03:55:50.433Z,109.80
2022-10-24T04:00:47.062Z,105.72
2022-10-24T04:05:43.341Z,110.22
2022-10-24T04:10:39.545Z,109.35
2022-10-24T04:15:35.754Z,108.97
2022-10-24T04:20:32.011Z,113.85
2022-10-24T04:25:28.314Z,111.68
2022-10-24T04:30:25.160Z,112.60
2022-10-24T04:35:21.391Z,116.05
2022-10-24T04:40:17.738Z,119.30
2022-10-24T04:45:13.969Z,119.75
2022-10-24T04:50:10.200Z,118.00
2022-10-24T04:55:06.588Z,117.38
2022-10-24T05:00:03.850Z,115.93
2022-10-24T05:05:00.126Z,118.72
2022-10-24T05:09:56.417Z,117.35
2022-10-24T05:14:52.616Z,113.38
2022-10-24T05:19:48.863Z,106.40
2022-10-24T05:24:45.087Z,104.97
2022-10-24T05:29:41.302Z,103.78
2022-10-24T05:34:37.619Z,99.30
2022-10-24T05:39:33.918Z,102.53
2022-10-24T05:44:30.184Z,106.43
2022-10-24T05:49:26.459Z,94.60
2022-10-24T05:54:22.829Z,98.13
2022-10-24T05:59:19.090Z,98.07
2022-10-24T06:04:15.440Z,99.32
2022-10-24T06:09:11.858Z,100.90
2022-10-24T06:14:08.116Z,99.43
2022-10-24T06:19:04.443Z,92.95
2022-10-24T06:24:00.801Z,100.75
2022-10-24T06:28:57.035Z,96.70
2022-10-24T06:33:55.485Z,101.28
2022-10-24T06:38:51.688Z,103.53
2022-10-24T06:43:49.133Z,102.03
2022-10-24T06:48:45.760Z,108.97
2022-10-24T06:53:42.131Z,111.88
2022-10-24T06:58:38.387Z,108.15
2022-10-24T07:03:34.780Z,112.95
2022-10-24T07:08:30.995Z,113.25
2022-10-24T07:13:27.360Z,113.78
2022-10-24T07:18:23.700Z,120.28
2022-10-24T07:23:19.972Z,119.55
2022-10-24T07:28:16.352Z,117.47
2022-10-24T07:33:12.593Z,126.70
2022-10-24T07:38:08.800Z,128.48
2022-10-24T07:43:05.012Z,120.35
2022-10-24T07:48:01.532Z,125.95
2022-10-24T07:52:57.932Z,126.18
2022-10-24T07:57:54.440Z,128.45
2022-10-24T08:02:51.015Z,120.55
2022-10-24T08:07:56.000Z,122.45
2022-10-24T08:13:02.354Z,129.40
2022-10-24T08:17:58.540Z,122.57
2022-10-24T08:22:54.731Z,119.25
2022-10-24T08:27:50.995Z,116.18
2022-10-24T08:32:47.500Z,114.93
2022-10-24T08:37:44.434Z,110.72
2022-10-24T08:42:40.892Z,115.30
2022-10-24T08:47:51.521Z,99.07
2022-10-24T08:52:51.589Z,95.00
2022-10-24T08:57:52.123Z,90.32
2022-10-24T09:02:52.026Z,78.95
2022-10-24T09:07:51.458Z,70.25
2022-10-24T09:12:47.674Z,74.30
2022-10-24T09:17:45.217Z,69.63
2022-10-24T09:22:43.536Z,59.92
2022-10-24T09:27:40.925Z,52.15
2022-10-24T09:32:37.359Z,53.35
2022-10-24T09:37:44.218Z,43.25
2022-10-24T09:42:49.152Z,42.42
2022-10-24T09:47:45.873Z,37.30
2022-10-24T09:52:47.844Z,29.95
2022-10-24T09:57:44.366Z,22.57
2022-10-24T10:02:55.797Z,21.60
2022-10-24T10:07:52.155Z,20.50
2022-10-24T10:12:55.937Z,19.42
2022-10-24T10:17:54.032Z,18.30
2022-10-24T10:22:50.230Z,18.30
2022-10-24T10:27:50.656Z,19.65
2022-10-24T10:32:53.025Z,16.08
2022-10-24T10:37:57.300Z,17.15
2022-10-24T10:42:53.572Z,14.43
2022-10-24T10:48:07.913Z,14.38
2022-10-24T10:53:22.640Z,16.25
2022-10-24T10:58:18.847Z,13.60
2022-10-24T11:03:41.585Z,11.77
2022-10-24T11:08:59.022Z,12.90
2022-10-24T11:14:20.719Z,10.77
2022-10-24T11:19:22.827Z,11.77
2022-10-24T11:24:21.907Z,10.90
2022-10-24T11:29:29.864Z,10.65
2022-10-24T11:34:35.284Z,10.40
2022-10-24T11:39:44.287Z,12.93
2022-10-24T11:44:45.591Z,11.15
2022-10-24T11:49:45.373Z,10.90
2022-10-24T11:54:44.305Z,11.15
2022-10-24T11:59:43.195Z,11.23
2022-10-24T12:04:48.846Z,10.93
2022-10-24T12:09:47.924Z,11.15
2022-10-24T12:14:44.078Z,10.85
2022-10-24T12:19:41.619Z,10.52
2022-10-24T12:24:40.861Z,11.25
2022-10-24T12:29:37.164Z,10.27
2022-10-24T12:34:46.106Z,11.65
2022-10-24T12:39:48.824Z,10.10
2022-10-24T12:44:45.705Z,10.48
2022-10-24T12:49:41.944Z,10.57
2022-10-24T12:54:39.953Z,11.75
2022-10-24T12:59:46.976Z,11.82
2022-10-24T13:04:55.418Z,11.80
2022-10-24T13:10:00.605Z,12.65
2022-10-24T13:15:15.341Z,10.88
2022-10-24T13:20:33.629Z,10.23
2022-10-24T13:25:33.786Z,10.88
2022-10-24T13:30:30.037Z,10.82
2022-10-24T13:35:26.398Z,11.80
2022-10-24T13:40:35.479Z,10.18
2022-10-24T13:45:31.710Z,10.55
2022-10-24T13:50:32.076Z,11.52
2022-10-24T13:55:31.402Z,10.63
2022-10-24T14:00:29.254Z,10.35
2022-10-24T14:05:29.786Z,9.68
2022-10-24T14:10:26.350Z,14.32
2022-10-24T14:15:24.375Z,10.65
2022-10-24T14:20:28.634Z,10.05
2022-10-24T14:25:27.789Z,11.63
2022-10-24T14:30:25.139Z,11.30
2022-10-24T14:35:21.389Z,11.07
2022-10-24T14:40:17.983Z,11.73
2022-10-24T14:45:24.956Z,11.35
2022-10-24T14:50:43.030Z,11.65
2022-10-24T14:55:39.640Z,13.57
2022-10-24T15:00:37.670Z,10.90
2022-10-24T15:05:34.531Z,11.43
2022-10-24T15:10:40.771Z,11.32
2022-10-24T15:15:43.455Z,11.00
2022-10-24T15:25:40.563Z,13.93
2022-10-24T15:30:41.139Z,12.32
2022-10-24T15:35:40.271Z,12.73
2022-10-24T15:40:36.494Z,14.52
2022-10-24T15:45:32.836Z,13.60
2022-10-24T15:50:29.113Z,12.80
2022-10-24T15:55:26.097Z,13.15
2022-10-24T16:00:22.676Z,14.15
2022-10-24T16:05:20.428Z,14.65
2022-10-24T16:10:19.709Z,14.02
2022-10-24T16:15:25.663Z,14.25
2022-10-24T16:20:21.952Z,15.15
2022-10-24T16:25:19.855Z,15.00
2022-10-24T16:30:17.432Z,16.05
2022-10-24T16:35:18.594Z,15.85
2022-10-24T16:40:14.866Z,16.88
2022-10-24T16:45:11.537Z,17.50
2022-10-24T16:50:08.115Z,19.23
2022-10-24T16:55:04.462Z,17.83
2022-10-24T17:00:00.649Z,19.55
2022-10-24T17:04:56.879Z,19.33
2022-10-24T17:09:53.179Z,18.75
2022-10-24T17:14:49.451Z,18.45
2022-10-24T17:19:48.168Z,19.35
2022-10-24T17:24:44.667Z,19.67
2022-10-24T17:29:41.620Z,19.38
2022-10-24T17:34:38.271Z,20.20
2022-10-24T17:39:43.197Z,20.02
2022-10-24T17:44:42.411Z,19.10
2022-10-24T17:49:38.697Z,18.58
2022-10-24T17:54:35.838Z,19.58
2022-10-24T17:59:32.195Z,20.55
2022-10-24T18:04:28.571Z,18.80
2022-10-24T18:09:27.213Z,17.63
2022-10-24T18:14:23.440Z,18.45
2022-10-24T18:19:19.983Z,19.13
2022-10-24T18:24:16.168Z,18.75
2022-10-24T18:29:12.490Z,20.65
2022-10-24T18:34:08.942Z,18.63
2022-10-24T18:39:05.770Z,17.27
2022-10-24T18:44:12.107Z,18.00
2022-10-24T18:49:09.081Z,17.83
2022-10-24T18:54:07.060Z,19.52
2022-10-24T18:59:03.631Z,19.20
2022-10-24T19:04:03.192Z,19.40
2022-10-24T19:08:59.495Z,20.05
2022-10-24T19:13:55.898Z,21.45
2022-10-24T19:18:55.641Z,23.27
2022-10-24T19:23:52.411Z,23.52
2022-10-24T19:28:48.685Z,23.73
2022-10-24T19:33:44.949Z,26.23
2022-10-24T19:38:41.171Z,26.20
2022-10-24T19:43:37.416Z,24.92
2022-10-24T19:48:34.872Z,28.50
2022-10-24T19:53:35.132Z,28.88
2022-10-24T19:58:31.606Z,32.00
2022-10-24T20:03:27.826Z,32.85
2022-10-24T20:08:24.073Z,34.75
2022-10-24T20:13:20.374Z,36.20
2022-10-24T20:18:16.648Z,34.47
2022-10-24T20:23:12.993Z,37.17
2022-10-24T20:28:09.232Z,39.13
2022-10-24T20:33:05.487Z,40.83
2022-10-24T20:38:01.898Z,40.80
2022-10-24T20:42:58.311Z,45.40
2022-10-24T20:47:54.544Z,48.45
2022-10-24T20:52:51.387Z,51.47
2022-10-24T20:57:47.568Z,54.03
2022-10-24T21:02:44.082Z,56.38
2022-10-24T21:07:40.653Z,59.67
2022-10-24T21:12:36.853Z,65.60
2022-10-24T21:17:33.071Z,72.75
2022-10-24T21:22:29.300Z,72.05
2022-10-24T21:27:25.514Z,81.15
2022-10-24T21:32:21.790Z,96.90
2022-10-24T21:37:17.994Z,99.40
2022-10-24T21:42:14.348Z,100.80
2022-10-24T21:47:10.626Z,105.63
2022-10-24T21:52:06.881Z,103.75
2022-10-24T21:57:03.117Z,112.95
2022-10-24T22:01:59.587Z,108.57
2022-10-24T22:06:55.895Z,125.53
2022-10-24T22:11:54.593Z,117.00
2022-10-24T22:16:50.886Z,108.68
2022-10-24T22:21:48.272Z,110.70
2022-10-24T22:26:44.857Z,110.05
2022-10-24T22:31:41.775Z,111.75
2022-10-24T22:36:56.634Z,112.53
2022-10-24T22:41:53.039Z,110.72
2022-10-24T22:46:49.314Z,110.45
2022-10-24T22:51:45.709Z,106.68
2022-10-24T22:56:42.153Z,111.72
2022-10-24T23:01:56.943Z,110.93
2022-10-24T23:06:58.081Z,116.68
2022-10-24T23:11:54.731Z,110.80
2022-10-24T23:16:55.307Z,112.03
2022-10-24T23:21:54.694Z,121.32
2022-10-24T23:27:09.531Z,113.03
2022-10-24T23:32:06.030Z,113.70
2022-10-24T23:37:04.175Z,118.20
2022-10-24T23:42:01.275Z,120.43
2022-10-24T23:47:06.068Z,120.28
2022-10-24T23:52:12.559Z,116.53
2022-10-24T23:57:16.544Z,115.15
